sensor_id;sensor_type;location;lat;lon;timestamp;temperature;humidity
46139;DHT22;32398;49.112;8.598;2022-11-15T00:01:05;8.90;97.50
46139;DHT22;32398;49.112;8.598;2022-11-15T00:03:32;8.90;97.50
46139;DHT22;32398;49.112;8.598;2022-11-15T00:06:00;8.90;97.60
46139;DHT22;32398;49.112;8.598;2022-11-15T00:08:29;8.90;97.60
46139;DHT22;32398;49.112;8.598;2022-11-15T00:10:56;8.90;97.70
46139;DHT22;32398;49.112;8.598;2022-11-15T00:13:23;8.80;97.70
46139;DHT22;32398;49.112;8.598;2022-11-15T00:15:50;8.90;97.80
46139;DHT22;32398;49.112;8.598;2022-11-15T00:18:16;8.90;97.80
46139;DHT22;32398;49.112;8.598;2022-11-15T00:20:43;8.90;97.80
46139;DHT22;32398;49.112;8.598;2022-11-15T00:23:10;8.90;97.80
46139;DHT22;32398;49.112;8.598;2022-11-15T00:25:38;8.90;97.80
46139;DHT22;32398;49.112;8.598;2022-11-15T00:28:04;8.90;97.80
46139;DHT22;32398;49.112;8.598;2022-11-15T00:30:31;8.90;97.80
46139;DHT22;32398;49.112;8.598;2022-11-15T00:33:01;8.90;97.80
46139;DHT22;32398;49.112;8.598;2022-11-15T00:35:27;8.90;97.80
46139;DHT22;32398;49.112;8.598;2022-11-15T00:37:54;8.90;97.80
46139;DHT22;32398;49.112;8.598;2022-11-15T00:40:20;8.90;97.80
46139;DHT22;32398;49.112;8.598;2022-11-15T00:42:48;8.90;97.80
46139;DHT22;32398;49.112;8.598;2022-11-15T00:45:15;8.90;97.80
46139;DHT22;32398;49.112;8.598;2022-11-15T00:47:43;8.90;97.80
46139;DHT22;32398;49.112;8.598;2022-11-15T00:50:10;8.90;97.80
46139;DHT22;32398;49.112;8.598;2022-11-15T00:52:36;8.90;97.90
46139;DHT22;32398;49.112;8.598;2022-11-15T00:55:03;8.90;97.80
46139;DHT22;32398;49.112;8.598;2022-11-15T00:57:30;8.90;97.80
46139;DHT22;32398;49.112;8.598;2022-11-15T00:59:58;8.90;97.90
46139;DHT22;32398;49.112;8.598;2022-11-15T01:02:24;8.90;98.20
46139;DHT22;32398;49.112;8.598;2022-11-15T01:04:51;8.80;97.80
46139;DHT22;32398;49.112;8.598;2022-11-15T01:07:17;8.90;97.80
46139;DHT22;32398;49.112;8.598;2022-11-15T01:09:44;8.90;97.80
46139;DHT22;32398;49.112;8.598;2022-11-15T01:12:10;8.90;97.80
46139;DHT22;32398;49.112;8.598;2022-11-15T01:14:37;8.90;97.80
46139;DHT22;32398;49.112;8.598;2022-11-15T01:17:05;8.90;97.80
46139;DHT22;32398;49.112;8.598;2022-11-15T01:19:31;8.90;97.80
46139;DHT22;32398;49.112;8.598;2022-11-15T01:21:58;8.90;97.80
46139;DHT22;32398;49.112;8.598;2022-11-15T01:24:24;8.80;97.70
46139;DHT22;32398;49.112;8.598;2022-11-15T01:26:51;8.90;97.80
46139;DHT22;32398;49.112;8.598;2022-11-15T01:29:18;8.90;97.80
46139;DHT22;32398;49.112;8.598;2022-11-15T01:31:44;8.90;97.80
46139;DHT22;32398;49.112;8.598;2022-11-15T01:34:12;8.80;97.70
46139;DHT22;32398;49.112;8.598;2022-11-15T01:36:40;8.80;97.70
46139;DHT22;32398;49.112;8.598;2022-11-15T01:39:07;8.80;97.70
46139;DHT22;32398;49.112;8.598;2022-11-15T01:41:34;8.90;97.80
46139;DHT22;32398;49.112;8.598;2022-11-15T01:46:42;8.80;97.80
46139;DHT22;32398;49.112;8.598;2022-11-15T01:49:11;8.90;97.80
46139;DHT22;32398;49.112;8.598;2022-11-15T01:51:40;8.80;97.80
46139;DHT22;32398;49.112;8.598;2022-11-15T01:54:07;8.80;97.80
46139;DHT22;32398;49.112;8.598;2022-11-15T01:56:36;8.80;97.80
46139;DHT22;32398;49.112;8.598;2022-11-15T01:59:03;8.80;97.80
46139;DHT22;32398;49.112;8.598;2022-11-15T02:01:30;8.80;97.80
46139;DHT22;32398;49.112;8.598;2022-11-15T02:03:58;8.80;97.80
46139;DHT22;32398;49.112;8.598;2022-11-15T02:06:25;8.80;97.80
46139;DHT22;32398;49.112;8.598;2022-11-15T02:08:53;8.80;97.90
46139;DHT22;32398;49.112;8.598;2022-11-15T02:11:20;8.80;97.90
46139;DHT22;32398;49.112;8.598;2022-11-15T02:13:47;8.80;97.90
46139;DHT22;32398;49.112;8.598;2022-11-15T02:16:15;8.80;97.90
46139;DHT22;32398;49.112;8.598;2022-11-15T02:18:48;8.80;97.90
46139;DHT22;32398;49.112;8.598;2022-11-15T02:21:17;8.80;97.90
46139;DHT22;32398;49.112;8.598;2022-11-15T02:29:30;8.80;97.90
46139;DHT22;32398;49.112;8.598;2022-11-15T02:32:05;8.80;97.90
46139;DHT22;32398;49.112;8.598;2022-11-15T02:34:35;8.80;97.90
46139;DHT22;32398;49.112;8.598;2022-11-15T02:37:06;8.80;98.00
46139;DHT22;32398;49.112;8.598;2022-11-15T02:39:39;8.80;97.90
46139;DHT22;32398;49.112;8.598;2022-11-15T02:42:07;8.80;97.90
46139;DHT22;32398;49.112;8.598;2022-11-15T02:44:55;8.80;98.00
46139;DHT22;32398;49.112;8.598;2022-11-15T02:47:23;8.80;98.00
46139;DHT22;32398;49.112;8.598;2022-11-15T02:49:51;8.80;98.00
46139;DHT22;32398;49.112;8.598;2022-11-15T02:52:19;8.80;98.00
46139;DHT22;32398;49.112;8.598;2022-11-15T02:54:52;8.80;98.00
46139;DHT22;32398;49.112;8.598;2022-11-15T02:57:19;8.80;98.00
46139;DHT22;32398;49.112;8.598;2022-11-15T02:59:50;8.80;98.00
46139;DHT22;32398;49.112;8.598;2022-11-15T03:02:27;8.80;98.00
46139;DHT22;32398;49.112;8.598;2022-11-15T03:04:57;8.80;98.10
46139;DHT22;32398;49.112;8.598;2022-11-15T03:07:26;8.80;98.10
46139;DHT22;32398;49.112;8.598;2022-11-15T03:09:56;8.80;98.10
46139;DHT22;32398;49.112;8.598;2022-11-15T03:12:27;8.80;98.10
46139;DHT22;32398;49.112;8.598;2022-11-15T03:14:56;8.80;98.10
46139;DHT22;32398;49.112;8.598;2022-11-15T03:17:27;8.80;98.10
46139;DHT22;32398;49.112;8.598;2022-11-15T03:19:55;8.70;98.00
46139;DHT22;32398;49.112;8.598;2022-11-15T03:22:24;8.80;98.10
46139;DHT22;32398;49.112;8.598;2022-11-15T03:24:53;8.80;98.00
46139;DHT22;32398;49.112;8.598;2022-11-15T03:27:20;8.80;98.40
46139;DHT22;32398;49.112;8.598;2022-11-15T03:29:49;8.80;98.00
46139;DHT22;32398;49.112;8.598;2022-11-15T03:32:17;8.80;98.00
46139;DHT22;32398;49.112;8.598;2022-11-15T03:34:47;8.80;98.10
46139;DHT22;32398;49.112;8.598;2022-11-15T03:37:15;8.80;98.00
46139;DHT22;32398;49.112;8.598;2022-11-15T03:39:42;8.80;98.10
46139;DHT22;32398;49.112;8.598;2022-11-15T03:42:14;8.80;98.00
46139;DHT22;32398;49.112;8.598;2022-11-15T03:44:45;8.70;98.00
46139;DHT22;32398;49.112;8.598;2022-11-15T03:47:13;8.80;98.10
46139;DHT22;32398;49.112;8.598;2022-11-15T03:49:44;8.80;98.10
46139;DHT22;32398;49.112;8.598;2022-11-15T03:52:12;8.80;98.10
46139;DHT22;32398;49.112;8.598;2022-11-15T03:54:47;8.80;98.10
46139;DHT22;32398;49.112;8.598;2022-11-15T03:57:13;8.80;98.20
46139;DHT22;32398;49.112;8.598;2022-11-15T03:59:40;8.80;98.10
46139;DHT22;32398;49.112;8.598;2022-11-15T04:02:07;8.80;98.10
46139;DHT22;32398;49.112;8.598;2022-11-15T04:04:33;8.80;98.10
46139;DHT22;32398;49.112;8.598;2022-11-15T04:07:00;8.80;98.20
46139;DHT22;32398;49.112;8.598;2022-11-15T04:09:28;8.80;98.20
46139;DHT22;32398;49.112;8.598;2022-11-15T04:11:54;8.80;98.20
46139;DHT22;32398;49.112;8.598;2022-11-15T04:14:21;8.80;98.20
46139;DHT22;32398;49.112;8.598;2022-11-15T04:16:47;8.90;98.20
46139;DHT22;32398;49.112;8.598;2022-11-15T04:19:14;8.80;98.20
46139;DHT22;32398;49.112;8.598;2022-11-15T04:21:58;8.90;98.20
46139;DHT22;32398;49.112;8.598;2022-11-15T04:24:43;8.80;98.20
46139;DHT22;32398;49.112;8.598;2022-11-15T04:27:10;8.80;98.20
46139;DHT22;32398;49.112;8.598;2022-11-15T04:29:40;8.90;98.20
46139;DHT22;32398;49.112;8.598;2022-11-15T04:32:07;8.90;98.20
46139;DHT22;32398;49.112;8.598;2022-11-15T04:34:34;8.80;98.20
46139;DHT22;32398;49.112;8.598;2022-11-15T04:37:00;8.90;98.30
46139;DHT22;32398;49.112;8.598;2022-11-15T04:39:39;8.80;98.20
46139;DHT22;32398;49.112;8.598;2022-11-15T04:42:07;8.90;98.30
46139;DHT22;32398;49.112;8.598;2022-11-15T04:44:34;8.90;98.30
46139;DHT22;32398;49.112;8.598;2022-11-15T04:47:00;8.90;98.30
46139;DHT22;32398;49.112;8.598;2022-11-15T04:49:27;8.90;98.30
46139;DHT22;32398;49.112;8.598;2022-11-15T04:51:54;8.90;98.30
46139;DHT22;32398;49.112;8.598;2022-11-15T04:54:20;8.90;98.30
46139;DHT22;32398;49.112;8.598;2022-11-15T04:56:47;8.90;98.30
46139;DHT22;32398;49.112;8.598;2022-11-15T04:59:15;8.90;98.30
46139;DHT22;32398;49.112;8.598;2022-11-15T05:01:41;8.90;98.30
46139;DHT22;32398;49.112;8.598;2022-11-15T05:04:08;8.90;98.30
46139;DHT22;32398;49.112;8.598;2022-11-15T05:06:46;8.90;98.20
46139;DHT22;32398;49.112;8.598;2022-11-15T05:09:13;8.90;98.20
46139;DHT22;32398;49.112;8.598;2022-11-15T05:11:40;8.90;98.20
46139;DHT22;32398;49.112;8.598;2022-11-15T05:14:06;8.90;98.20
46139;DHT22;32398;49.112;8.598;2022-11-15T05:16:34;8.90;98.10
46139;DHT22;32398;49.112;8.598;2022-11-15T05:19:01;9.00;98.30
46139;DHT22;32398;49.112;8.598;2022-11-15T05:21:27;9.00;98.10
46139;DHT22;32398;49.112;8.598;2022-11-15T05:23:54;9.00;98.20
46139;DHT22;32398;49.112;8.598;2022-11-15T05:26:21;9.00;98.70
46139;DHT22;32398;49.112;8.598;2022-11-15T05:28:51;9.00;98.70
46139;DHT22;32398;49.112;8.598;2022-11-15T05:31:18;9.00;98.70
46139;DHT22;32398;49.112;8.598;2022-11-15T05:33:46;9.00;98.60
46139;DHT22;32398;49.112;8.598;2022-11-15T05:36:13;9.00;98.50
46139;DHT22;32398;49.112;8.598;2022-11-15T05:38:43;9.00;98.50
46139;DHT22;32398;49.112;8.598;2022-11-15T05:41:10;9.00;98.50
46139;DHT22;32398;49.112;8.598;2022-11-15T05:43:37;9.00;98.40
46139;DHT22;32398;49.112;8.598;2022-11-15T05:46:04;9.00;98.40
46139;DHT22;32398;49.112;8.598;2022-11-15T05:48:31;9.00;98.30
46139;DHT22;32398;49.112;8.598;2022-11-15T05:50:59;9.00;98.30
46139;DHT22;32398;49.112;8.598;2022-11-15T05:53:26;9.00;98.30
46139;DHT22;32398;49.112;8.598;2022-11-15T05:55:53;9.00;98.30
46139;DHT22;32398;49.112;8.598;2022-11-15T05:58:19;9.00;98.30
46139;DHT22;32398;49.112;8.598;2022-11-15T06:00:46;8.90;98.20
46139;DHT22;32398;49.112;8.598;2022-11-15T06:03:13;9.00;98.30
46139;DHT22;32398;49.112;8.598;2022-11-15T06:05:39;9.00;98.20
46139;DHT22;32398;49.112;8.598;2022-11-15T06:08:07;9.00;98.20
46139;DHT22;32398;49.112;8.598;2022-11-15T06:10:34;9.00;98.20
46139;DHT22;32398;49.112;8.598;2022-11-15T06:13:01;9.00;98.20
46139;DHT22;32398;49.112;8.598;2022-11-15T06:15:28;9.00;98.20
46139;DHT22;32398;49.112;8.598;2022-11-15T06:17:55;9.00;98.20
46139;DHT22;32398;49.112;8.598;2022-11-15T06:20:22;9.00;98.20
46139;DHT22;32398;49.112;8.598;2022-11-15T06:22:49;9.00;98.10
46139;DHT22;32398;49.112;8.598;2022-11-15T06:25:17;8.90;98.10
46139;DHT22;32398;49.112;8.598;2022-11-15T06:27:43;9.00;98.10
46139;DHT22;32398;49.112;8.598;2022-11-15T06:30:10;9.00;98.10
46139;DHT22;32398;49.112;8.598;2022-11-15T06:32:37;9.00;98.10
46139;DHT22;32398;49.112;8.598;2022-11-15T06:35:04;9.00;98.10
46139;DHT22;32398;49.112;8.598;2022-11-15T06:37:30;9.00;98.10
46139;DHT22;32398;49.112;8.598;2022-11-15T06:39:57;8.90;98.10
46139;DHT22;32398;49.112;8.598;2022-11-15T06:42:25;8.90;98.10
46139;DHT22;32398;49.112;8.598;2022-11-15T06:44:51;9.00;98.10
46139;DHT22;32398;49.112;8.598;2022-11-15T06:47:18;8.90;98.10
46139;DHT22;32398;49.112;8.598;2022-11-15T06:49:44;8.90;98.10
46139;DHT22;32398;49.112;8.598;2022-11-15T06:52:11;8.90;98.10
46139;DHT22;32398;49.112;8.598;2022-11-15T06:54:37;8.90;98.10
46139;DHT22;32398;49.112;8.598;2022-11-15T06:57:04;8.90;98.10
46139;DHT22;32398;49.112;8.598;2022-11-15T06:59:32;8.90;98.10
46139;DHT22;32398;49.112;8.598;2022-11-15T07:01:58;9.00;98.20
46139;DHT22;32398;49.112;8.598;2022-11-15T07:04:25;8.90;98.10
46139;DHT22;32398;49.112;8.598;2022-11-15T07:06:51;8.90;98.10
46139;DHT22;32398;49.112;8.598;2022-11-15T07:09:18;8.90;98.10
46139;DHT22;32398;49.112;8.598;2022-11-15T07:11:45;9.00;98.20
46139;DHT22;32398;49.112;8.598;2022-11-15T07:14:11;8.90;98.10
46139;DHT22;32398;49.112;8.598;2022-11-15T07:16:39;9.00;98.50
46139;DHT22;32398;49.112;8.598;2022-11-15T07:19:06;9.00;98.20
46139;DHT22;32398;49.112;8.598;2022-11-15T07:21:32;9.00;98.20
46139;DHT22;32398;49.112;8.598;2022-11-15T07:23:59;9.00;98.20
46139;DHT22;32398;49.112;8.598;2022-11-15T07:26:25;9.00;98.20
46139;DHT22;32398;49.112;8.598;2022-11-15T07:28:52;9.00;98.20
46139;DHT22;32398;49.112;8.598;2022-11-15T07:31:18;9.00;98.20
46139;DHT22;32398;49.112;8.598;2022-11-15T07:33:46;9.00;98.20
46139;DHT22;32398;49.112;8.598;2022-11-15T07:36:13;9.00;98.20
46139;DHT22;32398;49.112;8.598;2022-11-15T07:38:39;9.00;98.20
46139;DHT22;32398;49.112;8.598;2022-11-15T07:41:06;9.00;98.20
46139;DHT22;32398;49.112;8.598;2022-11-15T07:43:33;9.00;98.30
46139;DHT22;32398;49.112;8.598;2022-11-15T07:46:03;9.00;98.20
46139;DHT22;32398;49.112;8.598;2022-11-15T07:48:30;9.00;98.20
46139;DHT22;32398;49.112;8.598;2022-11-15T07:50:58;9.00;98.30
46139;DHT22;32398;49.112;8.598;2022-11-15T07:53:25;9.00;98.40
46139;DHT22;32398;49.112;8.598;2022-11-15T07:55:52;9.00;98.40
46139;DHT22;32398;49.112;8.598;2022-11-15T07:58:18;9.00;98.40
46139;DHT22;32398;49.112;8.598;2022-11-15T08:00:45;9.00;98.40
46139;DHT22;32398;49.112;8.598;2022-11-15T08:03:12;9.00;98.30
46139;DHT22;32398;49.112;8.598;2022-11-15T08:05:39;9.10;98.40
46139;DHT22;32398;49.112;8.598;2022-11-15T08:08:08;9.00;98.30
46139;DHT22;32398;49.112;8.598;2022-11-15T08:10:35;9.00;98.30
46139;DHT22;32398;49.112;8.598;2022-11-15T08:13:03;9.10;98.30
46139;DHT22;32398;49.112;8.598;2022-11-15T08:15:30;9.00;98.30
46139;DHT22;32398;49.112;8.598;2022-11-15T08:17:57;9.00;98.30
46139;DHT22;32398;49.112;8.598;2022-11-15T08:20:24;9.10;98.40
46139;DHT22;32398;49.112;8.598;2022-11-15T08:22:51;9.10;98.30
46139;DHT22;32398;49.112;8.598;2022-11-15T08:25:19;9.10;98.40
46139;DHT22;32398;49.112;8.598;2022-11-15T08:27:46;9.10;98.40
46139;DHT22;32398;49.112;8.598;2022-11-15T08:30:12;9.10;98.40
46139;DHT22;32398;49.112;8.598;2022-11-15T08:32:41;9.10;98.70
46139;DHT22;32398;49.112;8.598;2022-11-15T08:35:07;9.10;98.40
46139;DHT22;32398;49.112;8.598;2022-11-15T08:37:34;9.10;98.30
46139;DHT22;32398;49.112;8.598;2022-11-15T08:40:01;9.10;98.30
46139;DHT22;32398;49.112;8.598;2022-11-15T08:42:29;9.10;98.30
46139;DHT22;32398;49.112;8.598;2022-11-15T08:44:55;9.20;98.30
46139;DHT22;32398;49.112;8.598;2022-11-15T08:47:22;9.20;98.20
46139;DHT22;32398;49.112;8.598;2022-11-15T08:49:49;9.20;98.20
46139;DHT22;32398;49.112;8.598;2022-11-15T08:52:16;9.20;98.20
46139;DHT22;32398;49.112;8.598;2022-11-15T08:54:42;9.20;98.20
46139;DHT22;32398;49.112;8.598;2022-11-15T08:57:09;9.20;98.20
46139;DHT22;32398;49.112;8.598;2022-11-15T08:59:37;9.20;98.10
46139;DHT22;32398;49.112;8.598;2022-11-15T09:02:04;9.30;98.10
46139;DHT22;32398;49.112;8.598;2022-11-15T09:04:30;9.20;98.00
46139;DHT22;32398;49.112;8.598;2022-11-15T09:06:57;9.30;98.00
46139;DHT22;32398;49.112;8.598;2022-11-15T09:09:24;9.30;98.00
46139;DHT22;32398;49.112;8.598;2022-11-15T09:11:50;9.30;97.90
46139;DHT22;32398;49.112;8.598;2022-11-15T09:14:17;9.30;97.90
46139;DHT22;32398;49.112;8.598;2022-11-15T09:16:45;9.30;97.90
46139;DHT22;32398;49.112;8.598;2022-11-15T09:19:11;9.40;97.90
46139;DHT22;32398;49.112;8.598;2022-11-15T09:21:39;9.30;97.80
46139;DHT22;32398;49.112;8.598;2022-11-15T09:24:06;9.30;97.80
46139;DHT22;32398;49.112;8.598;2022-11-15T09:26:33;9.40;97.80
46139;DHT22;32398;49.112;8.598;2022-11-15T09:29:00;9.40;97.90
46139;DHT22;32398;49.112;8.598;2022-11-15T09:31:27;9.40;97.80
46139;DHT22;32398;49.112;8.598;2022-11-15T09:33:55;9.50;97.90
46139;DHT22;32398;49.112;8.598;2022-11-15T09:36:22;9.40;97.80
46139;DHT22;32398;49.112;8.598;2022-11-15T09:38:49;9.40;97.80
46139;DHT22;32398;49.112;8.598;2022-11-15T09:44:04;9.50;97.80
46139;DHT22;32398;49.112;8.598;2022-11-15T09:46:36;9.50;97.80
46139;DHT22;32398;49.112;8.598;2022-11-15T09:49:06;9.50;97.80
46139;DHT22;32398;49.112;8.598;2022-11-15T09:51:34;9.50;97.80
46139;DHT22;32398;49.112;8.598;2022-11-15T09:54:03;9.50;97.80
46139;DHT22;32398;49.112;8.598;2022-11-15T09:56:31;9.60;98.00
46139;DHT22;32398;49.112;8.598;2022-11-15T09:59:01;9.60;97.80
46139;DHT22;32398;49.112;8.598;2022-11-15T10:01:34;9.60;97.80
46139;DHT22;32398;49.112;8.598;2022-11-15T10:04:03;9.60;97.80
46139;DHT22;32398;49.112;8.598;2022-11-15T10:06:31;9.60;97.80
46139;DHT22;32398;49.112;8.598;2022-11-15T10:09:00;9.60;97.80
46139;DHT22;32398;49.112;8.598;2022-11-15T10:11:28;9.70;98.00
46139;DHT22;32398;49.112;8.598;2022-11-15T10:13:56;9.70;97.80
46139;DHT22;32398;49.112;8.598;2022-11-15T10:19:10;9.70;97.80
46139;DHT22;32398;49.112;8.598;2022-11-15T10:21:45;9.70;97.80
46139;DHT22;32398;49.112;8.598;2022-11-15T10:24:17;9.70;97.80
46139;DHT22;32398;49.112;8.598;2022-11-15T10:26:45;9.80;97.80
46139;DHT22;32398;49.112;8.598;2022-11-15T10:29:17;9.80;97.80
46139;DHT22;32398;49.112;8.598;2022-11-15T10:31:43;9.80;97.80
46139;DHT22;32398;49.112;8.598;2022-11-15T10:34:11;9.80;97.80
46139;DHT22;32398;49.112;8.598;2022-11-15T10:36:38;9.80;97.70
46139;DHT22;32398;49.112;8.598;2022-11-15T10:39:12;9.80;97.70
46139;DHT22;32398;49.112;8.598;2022-11-15T10:41:40;9.90;97.70
46139;DHT22;32398;49.112;8.598;2022-11-15T10:47:05;9.90;97.70
46139;DHT22;32398;49.112;8.598;2022-11-15T10:49:32;9.90;97.70
46139;DHT22;32398;49.112;8.598;2022-11-15T10:51:59;9.90;97.70
46139;DHT22;32398;49.112;8.598;2022-11-15T10:54:29;9.90;97.60
46139;DHT22;32398;49.112;8.598;2022-11-15T10:56:57;9.90;97.60
46139;DHT22;32398;49.112;8.598;2022-11-15T10:59:25;9.90;97.60
46139;DHT22;32398;49.112;8.598;2022-11-15T11:01:52;10.00;97.60
46139;DHT22;32398;49.112;8.598;2022-11-15T11:04:19;10.00;97.60
46139;DHT22;32398;49.112;8.598;2022-11-15T11:06:46;10.00;97.60
46139;DHT22;32398;49.112;8.598;2022-11-15T11:09:21;10.00;97.60
46139;DHT22;32398;49.112;8.598;2022-11-15T11:11:50;10.00;97.50
46139;DHT22;32398;49.112;8.598;2022-11-15T11:14:19;10.00;97.50
46139;DHT22;32398;49.112;8.598;2022-11-15T11:16:48;10.00;97.50
46139;DHT22;32398;49.112;8.598;2022-11-15T11:19:18;10.10;97.50
46139;DHT22;32398;49.112;8.598;2022-11-15T11:21:49;10.10;97.50
46139;DHT22;32398;49.112;8.598;2022-11-15T11:24:18;10.10;97.50
46139;DHT22;32398;49.112;8.598;2022-11-15T11:26:55;10.10;97.50
46139;DHT22;32398;49.112;8.598;2022-11-15T11:29:30;10.10;97.50
46139;DHT22;32398;49.112;8.598;2022-11-15T11:32:02;10.20;97.50
46139;DHT22;32398;49.112;8.598;2022-11-15T11:34:33;10.20;97.40
46139;DHT22;32398;49.112;8.598;2022-11-15T11:37:03;10.20;97.40
46139;DHT22;32398;49.112;8.598;2022-11-15T11:39:33;10.20;97.40
46139;DHT22;32398;49.112;8.598;2022-11-15T11:42:12;10.30;97.40
46139;DHT22;32398;49.112;8.598;2022-11-15T11:44:43;10.30;97.30
46139;DHT22;32398;49.112;8.598;2022-11-15T11:47:14;10.30;97.30
46139;DHT22;32398;49.112;8.598;2022-11-15T11:49:45;10.30;97.30
46139;DHT22;32398;49.112;8.598;2022-11-15T11:52:14;10.30;97.20
46139;DHT22;32398;49.112;8.598;2022-11-15T11:54:46;10.40;97.30
46139;DHT22;32398;49.112;8.598;2022-11-15T11:57:17;10.40;97.30
46139;DHT22;32398;49.112;8.598;2022-11-15T11:59:48;10.40;97.20
46139;DHT22;32398;49.112;8.598;2022-11-15T12:02:18;10.40;97.20
46139;DHT22;32398;49.112;8.598;2022-11-15T12:04:46;10.40;97.20
46139;DHT22;32398;49.112;8.598;2022-11-15T12:07:15;10.40;97.20
46139;DHT22;32398;49.112;8.598;2022-11-15T12:09:44;10.40;97.30
46139;DHT22;32398;49.112;8.598;2022-11-15T12:12:13;10.50;97.30
46139;DHT22;32398;49.112;8.598;2022-11-15T12:14:45;10.50;97.30
46139;DHT22;32398;49.112;8.598;2022-11-15T12:17:13;10.50;97.30
46139;DHT22;32398;49.112;8.598;2022-11-15T12:19:42;10.50;97.30
46139;DHT22;32398;49.112;8.598;2022-11-15T12:22:10;10.50;97.30
46139;DHT22;32398;49.112;8.598;2022-11-15T12:24:39;10.50;97.30
46139;DHT22;32398;49.112;8.598;2022-11-15T12:27:11;10.60;97.30
46139;DHT22;32398;49.112;8.598;2022-11-15T12:29:41;10.50;97.30
46139;DHT22;32398;49.112;8.598;2022-11-15T12:32:16;10.60;97.60
46139;DHT22;32398;49.112;8.598;2022-11-15T12:34:44;10.50;97.30
46139;DHT22;32398;49.112;8.598;2022-11-15T12:40:17;10.60;97.40
46139;DHT22;32398;49.112;8.598;2022-11-15T12:42:56;10.60;97.40
46139;DHT22;32398;49.112;8.598;2022-11-15T12:45:24;10.60;97.30
46139;DHT22;32398;49.112;8.598;2022-11-15T12:47:52;10.70;97.30
46139;DHT22;32398;49.112;8.598;2022-11-15T12:55:46;10.70;97.30
46139;DHT22;32398;49.112;8.598;2022-11-15T12:58:39;10.70;97.30
46139;DHT22;32398;49.112;8.598;2022-11-15T13:01:07;10.70;97.30
46139;DHT22;32398;49.112;8.598;2022-11-15T13:03:35;10.80;97.30
46139;DHT22;32398;49.112;8.598;2022-11-15T13:06:08;10.80;97.30
46139;DHT22;32398;49.112;8.598;2022-11-15T13:08:39;10.80;97.40
46139;DHT22;32398;49.112;8.598;2022-11-15T13:13:52;10.90;97.30
46139;DHT22;32398;49.112;8.598;2022-11-15T13:16:18;11.00;97.30
46139;DHT22;32398;49.112;8.598;2022-11-15T13:18:53;11.00;97.20
46139;DHT22;32398;49.112;8.598;2022-11-15T13:21:21;11.00;97.20
46139;DHT22;32398;49.112;8.598;2022-11-15T13:24:15;11.10;97.20
46139;DHT22;32398;49.112;8.598;2022-11-15T13:26:42;11.10;97.20
46139;DHT22;32398;49.112;8.598;2022-11-15T13:29:14;11.10;97.10
46139;DHT22;32398;49.112;8.598;2022-11-15T13:31:41;11.20;97.10
46139;DHT22;32398;49.112;8.598;2022-11-15T13:36:59;11.20;97.10
46139;DHT22;32398;49.112;8.598;2022-11-15T13:39:27;11.20;97.10
46139;DHT22;32398;49.112;8.598;2022-11-15T13:41:54;11.30;97.10
46139;DHT22;32398;49.112;8.598;2022-11-15T13:44:22;11.30;97.10
46139;DHT22;32398;49.112;8.598;2022-11-15T13:46:49;11.30;97.00
46139;DHT22;32398;49.112;8.598;2022-11-15T13:49:28;11.40;97.10
46139;DHT22;32398;49.112;8.598;2022-11-15T13:51:55;11.40;97.00
46139;DHT22;32398;49.112;8.598;2022-11-15T13:54:24;11.40;97.30
46139;DHT22;32398;49.112;8.598;2022-11-15T13:56:52;11.40;97.00
46139;DHT22;32398;49.112;8.598;2022-11-15T13:59:23;11.50;97.00
46139;DHT22;32398;49.112;8.598;2022-11-15T14:01:50;11.50;97.00
46139;DHT22;32398;49.112;8.598;2022-11-15T14:04:18;11.50;97.10
46139;DHT22;32398;49.112;8.598;2022-11-15T14:06:46;11.50;97.10
46139;DHT22;32398;49.112;8.598;2022-11-15T14:09:29;11.50;97.10
46139;DHT22;32398;49.112;8.598;2022-11-15T14:11:56;11.50;97.10
46139;DHT22;32398;49.112;8.598;2022-11-15T14:14:23;11.50;97.10
46139;DHT22;32398;49.112;8.598;2022-11-15T14:16:50;11.50;97.10
46139;DHT22;32398;49.112;8.598;2022-11-15T14:19:35;11.50;97.20
46139;DHT22;32398;49.112;8.598;2022-11-15T14:22:12;11.50;97.20
46139;DHT22;32398;49.112;8.598;2022-11-15T14:24:42;11.50;97.20
46139;DHT22;32398;49.112;8.598;2022-11-15T14:27:15;11.60;97.20
46139;DHT22;32398;49.112;8.598;2022-11-15T14:29:42;11.50;97.20
46139;DHT22;32398;49.112;8.598;2022-11-15T14:32:12;11.60;97.20
46139;DHT22;32398;49.112;8.598;2022-11-15T14:34:39;11.50;97.30
46139;DHT22;32398;49.112;8.598;2022-11-15T14:37:19;11.60;97.30
46139;DHT22;32398;49.112;8.598;2022-11-15T14:39:47;11.60;97.30
46139;DHT22;32398;49.112;8.598;2022-11-15T14:42:14;11.60;97.50
46139;DHT22;32398;49.112;8.598;2022-11-15T14:44:40;11.60;97.30
46139;DHT22;32398;49.112;8.598;2022-11-15T14:47:07;11.60;97.30
46139;DHT22;32398;49.112;8.598;2022-11-15T14:49:34;11.60;97.30
46139;DHT22;32398;49.112;8.598;2022-11-15T14:52:00;11.60;97.40
46139;DHT22;32398;49.112;8.598;2022-11-15T14:54:27;11.60;97.40
46139;DHT22;32398;49.112;8.598;2022-11-15T14:56:55;11.60;97.40
46139;DHT22;32398;49.112;8.598;2022-11-15T14:59:21;11.60;97.40
46139;DHT22;32398;49.112;8.598;2022-11-15T15:01:48;11.60;97.40
46139;DHT22;32398;49.112;8.598;2022-11-15T15:04:14;11.60;97.40
46139;DHT22;32398;49.112;8.598;2022-11-15T15:06:41;11.60;97.40
46139;DHT22;32398;49.112;8.598;2022-11-15T15:09:08;11.60;97.50
46139;DHT22;32398;49.112;8.598;2022-11-15T15:11:34;11.60;97.40
46139;DHT22;32398;49.112;8.598;2022-11-15T15:14:02;11.60;97.40
46139;DHT22;32398;49.112;8.598;2022-11-15T15:16:29;11.60;97.40
46139;DHT22;32398;49.112;8.598;2022-11-15T15:18:55;11.60;97.40
46139;DHT22;32398;49.112;8.598;2022-11-15T15:21:22;11.60;97.40
46139;DHT22;32398;49.112;8.598;2022-11-15T15:23:49;11.70;97.40
46139;DHT22;32398;49.112;8.598;2022-11-15T15:26:16;11.70;97.70
46139;DHT22;32398;49.112;8.598;2022-11-15T15:28:42;11.70;97.40
46139;DHT22;32398;49.112;8.598;2022-11-15T15:31:10;11.70;97.50
46139;DHT22;32398;49.112;8.598;2022-11-15T15:33:37;11.70;97.50
46139;DHT22;32398;49.112;8.598;2022-11-15T15:36:04;11.70;97.40
46139;DHT22;32398;49.112;8.598;2022-11-15T15:38:31;11.70;97.40
46139;DHT22;32398;49.112;8.598;2022-11-15T15:40:58;11.70;97.40
46139;DHT22;32398;49.112;8.598;2022-11-15T15:43:28;11.70;97.40
46139;DHT22;32398;49.112;8.598;2022-11-15T15:45:54;11.70;97.40
46139;DHT22;32398;49.112;8.598;2022-11-15T15:48:22;11.70;97.40
46139;DHT22;32398;49.112;8.598;2022-11-15T15:50:49;11.70;97.70
46139;DHT22;32398;49.112;8.598;2022-11-15T15:53:16;11.70;97.40
46139;DHT22;32398;49.112;8.598;2022-11-15T15:55:42;11.70;97.50
46139;DHT22;32398;49.112;8.598;2022-11-15T15:58:09;11.70;97.50
46139;DHT22;32398;49.112;8.598;2022-11-15T16:00:36;11.70;97.50
46139;DHT22;32398;49.112;8.598;2022-11-15T16:03:03;11.70;97.50
46139;DHT22;32398;49.112;8.598;2022-11-15T16:05:30;11.70;97.50
46139;DHT22;32398;49.112;8.598;2022-11-15T16:07:57;11.70;97.50
46139;DHT22;32398;49.112;8.598;2022-11-15T16:10:24;11.70;97.50
46139;DHT22;32398;49.112;8.598;2022-11-15T16:12:51;11.70;97.40
46139;DHT22;32398;49.112;8.598;2022-11-15T16:15:18;11.70;97.50
46139;DHT22;32398;49.112;8.598;2022-11-15T16:17:47;11.70;97.40